Time;durP1;ratioP1;P1;durP2;ratioP2;P2;SDS_P1;SDS_P2;PMS_P1;PMS_P2;Temp;Humidity;BMP_temperature;BMP_pressure;BME280_temperature;BME280_humidity;BME280_pressure;Samples;Min_cycle;Max_cycle;Signal;HPM_P1;HPM_P2
2021/06/11 00:01:00;;;;;;;8.48;5.00;;;;;;;28.08;35.53;101166.34;5073681;28;20025;-77
2021/06/11 00:03:25;;;;;;;8.55;4.75;;;;;;;28.38;34.79;101165.53;5073588;28;20028;-77
2021/06/11 00:05:51;;;;;;;9.65;5.03;;;;;;;28.18;35.12;101168.22;5073591;28;20048;-77
2021/06/11 00:08:17;;;;;;;7.78;4.32;;;;;;;28.22;35.23;101156.94;5055619;28;20029;-77
2021/06/11 00:10:43;;;;;;;9.20;4.57;;;;;;;28.11;35.01;101155.09;5055566;28;20036;-78
2021/06/11 00:13:08;;;;;;;7.25;4.18;;;;;;;28.38;34.70;101171.16;5055510;28;20494;-77
2021/06/11 00:15:34;;;;;;;7.00;4.55;;;;;;;28.13;35.06;101161.06;5055281;28;20094;-77
2021/06/11 00:18:00;;;;;;;7.97;4.32;;;;;;;28.11;35.26;101163.50;5055518;28;20040;-80
2021/06/11 00:20:26;;;;;;;8.15;4.00;;;;;;;28.26;34.72;101152.03;5055471;28;20032;-77
2021/06/11 00:22:52;;;;;;;6.15;4.25;;;;;;;28.51;34.29;101158.09;5073265;28;20025;-77
2021/06/11 00:25:22;;;;;;;7.55;3.85;;;;;;;28.41;34.47;101157.03;5055239;28;20490;-77
2021/06/11 00:27:49;;;;;;;9.98;4.47;;;;;;;28.31;34.63;101155.19;5055174;28;20024;-77
2021/06/11 00:30:16;;;;;;;9.23;4.45;;;;;;;28.55;34.01;101169.28;5055345;28;20028;-76
2021/06/11 00:32:42;;;;;;;11.88;5.20;;;;;;;28.48;34.09;101158.94;5073015;28;20024;-77
2021/06/11 00:35:08;;;;;;;10.57;4.25;;;;;;;28.28;34.54;101160.84;5072699;28;20028;-77
2021/06/11 00:37:35;;;;;;;7.95;4.15;;;;;;;28.29;34.49;101156.81;5072225;28;20494;-77
2021/06/11 00:40:01;;;;;;;8.60;4.07;;;;;;;28.25;34.49;101161.69;5072545;28;20033;-77
2021/06/11 00:42:30;;;;;;;7.10;3.97;;;;;;;28.20;34.54;101160.97;5054937;28;20063;-77
2021/06/11 00:44:55;;;;;;;9.20;4.20;;;;;;;27.89;35.15;101156.59;5072300;28;20048;-77
2021/06/11 00:47:21;;;;;;;8.65;4.55;;;;;;;28.14;34.43;101168.28;5072752;28;20068;-78
2021/06/11 00:49:48;;;;;;;7.22;4.43;;;;;;;28.17;33.99;101161.78;5072859;28;20141;-77
2021/06/11 00:52:15;;;;;;;9.85;4.93;;;;;;;28.47;33.80;101162.97;5072805;28;20446;-78
2021/06/11 00:54:41;;;;;;;10.73;4.30;;;;;;;28.30;34.12;101156.44;5072771;28;20070;-78
2021/06/11 00:57:06;;;;;;;8.00;4.00;;;;;;;28.30;34.11;101162.03;5054864;28;20372;-78
2021/06/11 00:59:33;;;;;;;11.25;4.82;;;;;;;28.03;34.62;101173.22;5072682;28;20028;-78
2021/06/11 01:01:58;;;;;;;9.45;4.57;;;;;;;28.24;34.18;101172.13;5072617;28;20025;-78
2021/06/11 01:04:24;;;;;;;8.98;4.22;;;;;;;28.29;34.16;101168.06;5072614;28;20158;-78
2021/06/11 01:06:51;;;;;;;7.63;4.15;;;;;;;28.30;34.21;101170.47;5072646;28;20035;-78
2021/06/11 01:09:17;;;;;;;10.63;4.80;;;;;;;28.31;34.29;101182.50;5072598;28;20047;-77
2021/06/11 01:11:44;;;;;;;6.43;4.30;;;;;;;28.06;34.85;101177.22;5072497;28;20032;-78
2021/06/11 01:14:11;;;;;;;9.48;4.43;;;;;;;27.90;35.15;101189.09;5072373;28;20048;-78
2021/06/11 01:16:37;;;;;;;6.93;4.07;;;;;;;28.15;34.46;101178.28;5072476;28;20056;-79
2021/06/11 01:19:05;;;;;;;8.07;4.45;;;;;;;28.42;33.88;101178.31;5072569;28;20432;-78
2021/06/11 01:21:31;;;;;;;8.13;4.70;;;;;;;28.54;33.90;101185.34;5072470;28;20517;-78
2021/06/11 01:24:14;;;;;;;7.60;4.57;;;;;;;28.13;34.46;101177.91;5054322;28;20455;-77
2021/06/11 01:26:47;;;;;;;7.90;4.28;;;;;;;28.49;33.82;101185.84;5072377;28;20021;-82
2021/06/11 01:29:17;;;;;;;11.38;5.22;;;;;;;28.62;33.52;101186.81;5072411;28;20021;-78
2021/06/11 01:31:49;;;;;;;8.38;5.13;;;;;;;28.41;33.87;101187.94;5054366;28;20531;-80
2021/06/11 01:34:36;;;;;;;7.32;4.80;;;;;;;28.50;33.80;101187.44;5072413;28;20108;-77
2021/06/11 01:37:07;;;;;;;11.00;4.72;;;;;;;28.46;33.54;101201.53;5054380;28;20033;-78
2021/06/11 01:39:33;;;;;;;11.23;4.25;;;;;;;28.25;34.13;101195.41;5072298;28;20037;-78
2021/06/11 01:42:00;;;;;;;8.95;4.88;;;;;;;28.48;33.40;101210.31;5054255;28;20036;-78
2021/06/11 01:44:27;;;;;;;9.20;5.20;;;;;;;28.55;33.55;101201.00;5072221;28;20024;-78
2021/06/11 01:46:59;;;;;;;19.08;5.38;;;;;;;28.46;33.44;101207.16;5072144;28;20040;-78
2021/06/11 01:49:28;;;;;;;11.00;4.80;;;;;;;28.50;33.68;101209.13;5072260;28;20035;-79
2021/06/11 01:51:56;;;;;;;7.43;4.88;;;;;;;28.53;33.20;101206.25;5072173;28;20040;-77
2021/06/11 01:54:23;;;;;;;9.68;5.18;;;;;;;28.57;33.18;101207.00;5071493;28;20056;-79
2021/06/11 01:56:50;;;;;;;9.65;4.68;;;;;;;28.59;33.23;101203.75;5072164;28;20032;-78
2021/06/11 01:59:17;;;;;;;11.35;4.88;;;;;;;28.62;33.30;101203.69;5075807;28;20446;-78
2021/06/11 02:01:44;;;;;;;6.53;4.65;;;;;;;28.31;33.55;101216.22;5074581;28;20029;-78
2021/06/11 02:04:11;;;;;;;9.85;4.88;;;;;;;28.26;33.70;101213.84;5075931;28;20478;-79
2021/06/11 02:06:37;;;;;;;9.68;4.32;;;;;;;28.29;33.51;101216.63;5075833;28;20056;-78
2021/06/11 02:09:03;;;;;;;8.57;4.18;;;;;;;28.52;33.07;101221.53;5075817;28;20020;-78
2021/06/11 02:11:29;;;;;;;8.85;5.20;;;;;;;28.45;33.16;101216.03;5075758;28;20024;-78
2021/06/11 02:13:55;;;;;;;11.95;4.13;;;;;;;28.47;33.10;101213.56;5075609;28;20076;-78
2021/06/11 02:16:24;;;;;;;11.38;4.70;;;;;;;28.53;33.13;101220.31;5075646;28;20417;-78
2021/06/11 02:18:50;;;;;;;13.07;4.60;;;;;;;28.06;33.78;101222.16;5075626;28;20028;-78
2021/06/11 02:21:17;;;;;;;9.98;4.57;;;;;;;28.55;32.87;101228.31;5075581;28;20029;-79
2021/06/11 02:23:43;;;;;;;8.90;4.28;;;;;;;28.50;33.10;101235.22;5057597;28;20478;-78
2021/06/11 02:26:13;;;;;;;6.93;4.32;;;;;;;28.34;33.43;101233.06;5057583;28;20021;-77
2021/06/11 02:28:39;;;;;;;;;;;;;;;28.23;33.54;101237.97;5075931;28;20027;-78
2021/06/11 02:31:05;;;;;;;12.02;4.50;;;;;;;28.51;32.97;101241.63;5075456;28;20326;-81
2021/06/11 02:33:31;;;;;;;10.88;4.43;;;;;;;28.56;33.05;101235.53;5075423;28;20490;-78
2021/06/11 02:35:57;;;;;;;10.23;4.40;;;;;;;28.57;33.07;101234.31;5075018;28;20037;-77
2021/06/11 02:38:23;;;;;;;12.85;4.22;;;;;;;28.44;33.27;101231.28;5075363;28;20031;-78
2021/06/11 02:40:50;;;;;;;8.68;3.88;;;;;;;28.49;33.07;101236.44;5057153;28;20016;-78
2021/06/11 02:43:20;;;;;;;11.75;3.95;;;;;;;28.59;32.80;101240.31;5075213;28;20063;-78
2021/06/11 02:45:51;;;;;;;11.65;4.72;;;;;;;28.59;33.04;101237.50;5073919;28;20123;-78
2021/06/11 02:48:29;;;;;;;10.63;4.80;;;;;;;28.48;33.17;101238.44;5075013;28;20032;-77
2021/06/11 02:51:27;;;;;;;8.25;4.45;;;;;;;28.23;33.48;101234.38;5075137;28;20035;-78
2021/06/11 02:53:54;;;;;;;9.60;3.97;;;;;;;28.52;33.34;101232.78;5067474;28;20041;-78
2021/06/11 02:56:23;;;;;;;8.43;4.22;;;;;;;28.07;33.85;101240.59;5074631;28;20025;-78
2021/06/11 02:58:56;;;;;;;10.07;4.38;;;;;;;28.20;33.55;101233.22;5056988;28;20115;-78
2021/06/11 03:01:24;;;;;;;9.60;4.50;;;;;;;28.24;33.54;101239.56;5074860;28;20052;-78
2021/06/11 03:03:51;;;;;;;11.80;5.00;;;;;;;28.24;33.44;101225.50;5074883;28;20033;-77
2021/06/11 03:06:19;;;;;;;11.73;4.38;;;;;;;28.32;33.69;101227.03;5074762;28;20360;-78
2021/06/11 03:08:47;;;;;;;10.15;4.47;;;;;;;28.27;33.54;101235.13;5072758;28;20508;-78
2021/06/11 03:11:25;;;;;;;11.15;4.93;;;;;;;28.27;33.65;101233.13;5074728;28;20036;-78
2021/06/11 03:13:51;;;;;;;9.35;4.10;;;;;;;28.30;33.57;101246.34;5073140;28;20098;-77
2021/06/11 03:16:17;;;;;;;8.93;4.57;;;;;;;28.35;33.58;101240.25;5074594;28;20099;-78
2021/06/11 03:18:55;;;;;;;10.52;4.40;;;;;;;28.35;33.80;101234.63;5074427;28;20120;-78
2021/06/11 03:21:24;;;;;;;12.35;5.20;;;;;;;28.39;33.79;101234.56;5074582;28;20024;-79
2021/06/11 03:23:57;;;;;;;9.68;4.75;;;;;;;28.41;33.48;101232.13;5074474;28;20036;-78
2021/06/11 03:26:28;;;;;;;9.48;4.43;;;;;;;28.23;33.88;101228.75;5074498;28;20608;-78
2021/06/11 03:28:58;;;;;;;8.10;3.85;;;;;;;28.35;33.72;101233.84;5074466;28;20032;-82
2021/06/11 03:31:29;;;;;;;6.97;4.28;;;;;;;28.40;33.75;101238.97;5056482;28;20035;-78
2021/06/11 03:34:01;;;;;;;6.75;3.90;;;;;;;28.35;33.97;101242.28;5074026;28;20580;-80
2021/06/11 03:36:42;;;;;;;8.77;4.20;;;;;;;28.39;33.79;101243.00;5074173;28;20021;-80
2021/06/11 03:39:15;;;;;;;15.02;4.78;;;;;;;28.29;33.88;101241.91;5074170;28;20039;-78
2021/06/11 03:41:42;;;;;;;9.30;4.13;;;;;;;28.38;33.60;101239.41;5074167;28;20020;-77
2021/06/11 03:44:10;;;;;;;10.38;4.22;;;;;;;28.30;33.74;101249.16;5074064;28;20471;-78
2021/06/11 03:46:39;;;;;;;9.18;4.20;;;;;;;28.31;33.81;101247.13;5073873;28;20173;-78
2021/06/11 03:49:06;;;;;;;9.27;4.78;;;;;;;28.36;33.61;101241.84;5074039;28;20100;-78
2021/06/11 03:51:33;;;;;;;7.80;3.75;;;;;;;28.39;33.53;101246.59;5074006;28;20024;-78
2021/06/11 03:54:06;;;;;;;7.63;4.15;;;;;;;28.34;33.81;101251.91;5073884;28;20146;-78
2021/06/11 03:56:35;;;;;;;9.40;4.32;;;;;;;28.23;33.92;101256.84;5073879;28;20382;-78
2021/06/11 03:59:03;;;;;;;9.38;4.15;;;;;;;28.30;33.57;101257.56;5073710;28;20378;-78
2021/06/11 04:01:34;;;;;;;16.63;5.90;;;;;;;28.28;33.94;101254.38;5073695;28;20024;-78
2021/06/11 04:04:01;;;;;;;9.82;4.85;;;;;;;28.19;33.98;101260.53;5073688;28;20032;-78
2021/06/11 04:06:32;;;;;;;12.43;4.80;;;;;;;28.19;34.35;101254.91;5073545;28;20033;-77
2021/06/11 04:09:05;;;;;;;9.35;4.18;;;;;;;28.15;34.06;101259.75;5073576;28;20142;-78
2021/06/11 04:11:41;;;;;;;8.68;4.40;;;;;;;28.20;34.13;101261.31;5072723;28;20020;-78
2021/06/11 04:14:09;;;;;;;11.07;4.50;;;;;;;28.22;34.24;101261.69;5072714;28;20072;-78
2021/06/11 04:16:46;;;;;;;9.27;4.30;;;;;;;28.18;34.45;101258.91;5073359;28;20103;-78
2021/06/11 04:19:44;;;;;;;8.73;4.28;;;;;;;28.13;34.42;101253.78;5072631;28;20541;-78
2021/06/11 04:22:13;;;;;;;8.15;3.80;;;;;;;28.12;34.40;101259.81;5073368;28;20024;-78
2021/06/11 04:24:42;;;;;;;13.63;4.72;;;;;;;28.14;34.71;101266.59;5073294;28;20055;-78
2021/06/11 04:27:08;;;;;;;6.60;4.07;;;;;;;28.22;34.85;101270.09;5073277;28;20049;-78
2021/06/11 04:29:35;;;;;;;8.90;4.20;;;;;;;28.11;34.74;101270.25;5073184;28;20261;-78
2021/06/11 04:32:00;;;;;;;12.13;4.15;;;;;;;28.33;34.44;101269.97;5073124;28;20025;-77
2021/06/11 04:34:26;;;;;;;16.42;5.18;;;;;;;28.33;34.51;101273.59;5073160;28;20039;-78
2021/06/11 04:36:53;;;;;;;7.75;3.78;;;;;;;28.31;34.71;101272.41;5071856;28;20040;-78
2021/06/11 04:39:19;;;;;;;12.93;5.00;;;;;;;28.30;34.72;101273.66;5073000;28;20035;-78
2021/06/11 04:41:45;;;;;;;14.05;5.15;;;;;;;28.41;34.56;101274.28;5072904;28;20036;-78
2021/06/11 04:44:11;;;;;;;13.15;4.78;;;;;;;28.20;35.02;101262.09;5054888;28;20029;-78
2021/06/11 04:46:37;;;;;;;22.67;6.18;;;;;;;28.22;35.10;101266.50;5072884;28;20487;-78
2021/06/11 04:49:07;;;;;;;10.48;4.53;;;;;;;28.32;34.92;101274.00;5072846;28;20386;-78
2021/06/11 04:51:36;;;;;;;10.90;4.47;;;;;;;28.34;34.80;101265.94;5054910;28;20021;-78
2021/06/11 04:54:02;;;;;;;23.57;6.17;;;;;;;28.28;35.27;101273.25;5054858;28;20165;-78
2021/06/11 04:56:28;;;;;;;10.13;4.47;;;;;;;28.12;35.47;101277.47;5072779;28;20265;-78
2021/06/11 04:58:54;;;;;;;8.27;4.05;;;;;;;28.37;35.35;101281.97;5072658;28;20032;-78
2021/06/11 05:01:20;;;;;;;10.45;4.53;;;;;;;28.38;35.23;101264.69;5071403;28;20066;-78
2021/06/11 05:03:46;;;;;;;8.63;4.22;;;;;;;28.39;35.44;101274.72;5072685;28;20079;-78
2021/06/11 05:06:11;;;;;;;18.33;6.13;;;;;;;28.37;35.25;101276.38;5072663;28;20037;-78
2021/06/11 05:08:37;;;;;;;8.02;4.13;;;;;;;28.46;35.10;101269.00;5054423;28;20146;-78
2021/06/11 05:11:03;;;;;;;8.10;4.80;;;;;;;28.49;35.16;101275.78;5072544;28;20048;-79
2021/06/11 05:13:30;;;;;;;13.73;4.85;;;;;;;28.46;35.29;101256.94;5054339;28;20125;-81
2021/06/11 05:15:56;;;;;;;7.82;4.20;;;;;;;28.41;35.52;101282.72;5072561;28;20033;-79
2021/06/11 05:18:25;;;;;;;10.02;4.68;;;;;;;28.48;35.43;101277.78;5072493;28;20502;-78
2021/06/11 05:20:51;;;;;;;11.38;4.22;;;;;;;28.55;35.17;101284.53;5072450;28;20032;-78
2021/06/11 05:23:18;;;;;;;8.25;4.18;;;;;;;28.59;35.15;101288.88;5072323;28;20029;-78
2021/06/11 05:25:44;;;;;;;7.15;4.22;;;;;;;28.55;35.08;101287.34;5072411;28;20027;-78
2021/06/11 05:28:09;;;;;;;8.60;3.92;;;;;;;28.50;35.45;101287.84;5072357;28;20028;-78
2021/06/11 05:30:35;;;;;;;13.93;4.85;;;;;;;28.46;35.49;101287.88;5073371;28;20051;-78
2021/06/11 05:33:02;;;;;;;8.95;3.95;;;;;;;28.55;35.40;101288.13;5078984;28;20494;-78
2021/06/11 05:35:28;;;;;;;10.52;4.47;;;;;;;28.56;35.49;101294.56;5078966;28;20021;-78
2021/06/11 05:37:56;;;;;;;10.43;4.57;;;;;;;28.50;35.62;101297.06;5078897;28;20029;-78
2021/06/11 05:40:22;;;;;;;7.53;5.03;;;;;;;28.58;35.53;101298.56;5078973;28;20030;-78
2021/06/11 05:42:49;;;;;;;8.13;3.88;;;;;;;28.49;35.53;101298.28;5078898;28;20398;-79
2021/06/11 05:45:15;;;;;;;10.50;4.78;;;;;;;28.62;35.23;101293.66;5078912;28;20057;-83
2021/06/11 05:47:41;;;;;;;6.30;4.00;;;;;;;28.68;35.21;101291.97;5078808;28;20059;-77
2021/06/11 05:50:08;;;;;;;8.88;3.92;;;;;;;28.56;35.45;101298.16;5077645;28;20028;-80
2021/06/11 05:52:34;;;;;;;6.15;4.10;;;;;;;28.56;35.54;101302.97;5078845;28;20020;-77
2021/06/11 05:55:00;;;;;;;12.18;4.70;;;;;;;28.54;35.55;101300.59;5078794;28;20059;-78
2021/06/11 05:57:26;;;;;;;8.43;4.55;;;;;;;28.36;35.80;101308.50;5078738;28;20435;-77
2021/06/11 05:59:55;;;;;;;5.95;3.88;;;;;;;28.57;35.55;101308.22;5078729;28;20024;-82
2021/06/11 06:02:21;;;;;;;9.80;3.97;;;;;;;28.29;35.95;101317.00;5073607;28;20021;-82
2021/06/11 06:04:47;;;;;;;6.57;3.50;;;;;;;28.32;35.81;101322.56;5067449;28;20501;-78
2021/06/11 06:07:13;;;;;;;8.85;3.78;;;;;;;28.35;35.93;101329.38;5078154;28;20032;-83
2021/06/11 06:09:38;;;;;;;5.90;3.85;;;;;;;28.37;36.09;101343.81;5078332;28;20032;-79
2021/06/11 06:12:04;;;;;;;5.45;3.45;;;;;;;27.97;36.99;101329.41;5078760;28;20021;-77
2021/06/11 06:14:30;;;;;;;6.85;3.50;;;;;;;28.11;36.79;101331.22;5076481;28;20098;-79
2021/06/11 06:16:55;;;;;;;10.38;3.65;;;;;;;27.86;37.26;101337.94;5062919;28;20489;-78
2021/06/11 06:19:21;;;;;;;4.57;2.40;;;;;;;27.38;38.12;101335.97;5061918;28;20036;-78
2021/06/11 06:21:46;;;;;;;7.28;4.00;;;;;;;27.44;37.63;101344.75;5062023;28;20024;-77
2021/06/11 06:24:12;;;;;;;6.50;3.45;;;;;;;27.65;37.11;101352.94;5043087;28;20021;-77
2021/06/11 06:26:37;;;;;;;5.68;3.00;;;;;;;27.47;37.25;101371.97;5065234;28;20020;-80
2021/06/11 06:29:03;;;;;;;8.63;2.88;;;;;;;27.70;36.91;101362.19;5078562;28;20027;-78
2021/06/11 06:31:29;;;;;;;7.13;2.60;;;;;;;27.60;36.91;101367.44;5060460;28;20115;-78
2021/06/11 06:33:55;;;;;;;6.30;3.10;;;;;;;27.47;37.12;101359.97;5078412;28;20070;-78
2021/06/11 06:36:21;;;;;;;5.28;3.00;;;;;;;27.61;36.60;101365.44;5060710;28;20413;-85
2021/06/11 06:38:47;;;;;;;6.80;2.70;;;;;;;27.39;36.72;101367.63;5079590;28;20445;-71
2021/06/11 06:41:14;;;;;;;6.93;2.95;;;;;;;27.31;36.84;101374.53;5079268;28;20024;-70
2021/06/11 06:43:39;;;;;;;5.18;3.05;;;;;;;26.69;37.74;101372.50;5072914;28;20048;-92
2021/06/11 06:46:08;;;;;;;14.63;4.43;;;;;;;26.82;37.00;101368.00;5076191;28;20017;-70
2021/06/11 06:48:35;;;;;;;13.88;4.03;;;;;;;27.12;36.41;101372.25;5075607;28;20028;-88
2021/06/11 06:51:00;;;;;;;13.45;3.75;;;;;;;26.74;36.88;101375.66;5073945;28;20031;-70
2021/06/11 06:53:26;;;;;;;6.82;3.42;;;;;;;27.39;35.94;101367.63;5069865;28;20030;-72
2021/06/11 06:55:52;;;;;;;20.77;5.97;;;;;;;27.62;35.47;101372.66;5073943;28;20035;-89
2021/06/11 06:58:17;;;;;;;6.40;2.95;;;;;;;27.61;35.26;101383.09;5074971;28;20012;-74
2021/06/11 07:00:43;;;;;;;5.95;3.08;;;;;;;27.47;35.59;101377.59;5073993;28;20032;-71
2021/06/11 07:03:09;;;;;;;9.95;3.60;;;;;;;28.00;34.65;101376.31;5074843;28;20021;-71
2021/06/11 07:05:34;;;;;;;9.10;3.35;;;;;;;28.25;34.13;101370.41;5074918;28;20447;-71
2021/06/11 07:08:00;;;;;;;11.00;4.05;;;;;;;28.55;33.72;101372.47;5073003;28;20063;-73
2021/06/11 07:10:26;;;;;;;12.02;3.88;;;;;;;28.64;33.40;101380.38;5073702;28;20029;-73
2021/06/11 07:12:51;;;;;;;8.60;3.83;;;;;;;28.67;33.09;101390.81;5073449;28;20040;-71
2021/06/11 07:15:17;;;;;;;4.70;2.67;;;;;;;28.48;32.84;101392.22;5063514;28;20037;-71
2021/06/11 07:17:42;;;;;;;9.57;3.50;;;;;;;28.25;33.01;101392.09;5059953;28;20024;-72
2021/06/11 07:20:09;;;;;;;14.55;4.07;;;;;;;28.65;32.36;101394.03;5062523;28;20021;-88
2021/06/11 07:22:35;;;;;;;7.07;2.83;;;;;;;28.73;32.02;101401.16;5055570;28;20028;-90
2021/06/11 07:25:03;;;;;;;10.27;3.63;;;;;;;28.61;32.55;101401.72;5059907;28;20021;-71
2021/06/11 07:27:32;;;;;;;10.50;4.22;;;;;;;28.55;32.08;101389.34;5074208;28;20044;-71
2021/06/11 07:30:04;;;;;;;7.30;3.60;;;;;;;28.18;32.80;101395.78;5074673;28;20021;-71
2021/06/11 07:32:29;;;;;;;26.67;4.40;;;;;;;28.37;32.30;101391.59;5074263;28;20078;-71
2021/06/11 07:34:55;;;;;;;9.10;3.85;;;;;;;28.54;31.91;101398.19;5074416;28;20020;-72
2021/06/11 07:37:21;;;;;;;8.38;4.10;;;;;;;28.98;30.93;101400.03;5074275;28;20060;-71
2021/06/11 07:39:46;;;;;;;11.82;3.40;;;;;;;29.27;30.81;101414.47;5074184;28;20032;-72
2021/06/11 07:42:14;;;;;;;7.50;3.28;;;;;;;28.91;30.91;101411.38;5074753;28;20024;-71
2021/06/11 07:44:40;;;;;;;11.82;3.70;;;;;;;28.65;30.47;101416.53;5055091;28;20398;-71
2021/06/11 07:47:06;;;;;;;11.82;3.72;;;;;;;28.42;30.13;101422.84;5063006;28;20055;-82
2021/06/11 07:49:32;;;;;;;9.57;3.20;;;;;;;28.72;29.87;101424.09;5071521;28;20024;-94
2021/06/11 07:51:58;;;;;;;8.40;4.13;;;;;;;28.66;29.94;101422.94;5077535;28;20047;-75
2021/06/11 07:54:24;;;;;;;10.60;4.85;;;;;;;28.86;29.72;101423.06;5034432;28;20395;-70
2021/06/11 07:56:49;;;;;;;9.07;3.38;;;;;;;28.83;29.91;101421.13;5054821;28;20021;-84
2021/06/11 07:59:20;;;;;;;8.10;3.15;;;;;;;28.89;30.04;101427.88;5053689;28;20025;-70
2021/06/11 08:01:45;;;;;;;10.20;4.00;;;;;;;29.09;29.70;101425.19;5051205;28;20104;-82
2021/06/11 08:04:11;;;;;;;8.02;3.72;;;;;;;29.08;29.33;101420.78;5051842;28;20096;-75
2021/06/11 08:06:37;;;;;;;7.82;3.45;;;;;;;29.13;29.06;101412.69;5051727;28;20029;-75
2021/06/11 08:09:03;;;;;;;7.28;3.53;;;;;;;28.94;29.05;101424.59;5051649;28;20021;-76
2021/06/11 08:11:28;;;;;;;9.52;3.97;;;;;;;28.75;28.98;101426.03;5052126;28;20032;-75
2021/06/11 08:13:54;;;;;;;23.00;4.75;;;;;;;28.85;28.96;101438.34;5057549;28;20052;-74
2021/06/11 08:16:19;;;;;;;9.40;3.47;;;;;;;28.60;29.32;101436.66;5073501;28;20410;-77
2021/06/11 08:18:45;;;;;;;19.35;4.10;;;;;;;28.72;29.13;101436.13;5073338;28;20043;-80
2021/06/11 08:21:10;;;;;;;19.30;5.43;;;;;;;28.75;29.01;101443.72;5073317;28;20028;-76
2021/06/11 08:23:36;;;;;;;11.85;4.28;;;;;;;28.81;29.19;101444.03;5068156;28;20485;-76
2021/06/11 08:26:02;;;;;;;7.45;2.97;;;;;;;28.62;29.48;101451.09;5073191;28;20422;-76
2021/06/11 08:28:28;;;;;;;11.68;4.32;;;;;;;28.90;29.21;101460.41;5073357;28;20036;-76
2021/06/11 08:30:53;;;;;;;10.25;3.70;;;;;;;28.54;29.57;101452.41;5073156;28;20051;-76
2021/06/11 08:33:19;;;;;;;11.15;3.55;;;;;;;28.84;29.09;101456.47;5072560;28;20033;-76
2021/06/11 08:35:45;;;;;;;13.68;4.38;;;;;;;28.55;29.42;101454.00;5073084;28;20158;-76
2021/06/11 08:38:12;;;;;;;19.55;5.28;;;;;;;28.58;29.46;101455.97;5072942;28;20025;-76
2021/06/11 08:40:38;;;;;;;10.70;3.97;;;;;;;28.33;29.88;101469.50;5055171;28;20414;-76
2021/06/11 08:43:05;;;;;;;14.55;4.40;;;;;;;27.93;30.42;101461.44;5073015;28;20030;-76
2021/06/11 08:45:30;;;;;;;8.45;3.80;;;;;;;28.11;29.97;101466.91;5054964;28;20388;-77
2021/06/11 08:47:56;;;;;;;12.90;4.15;;;;;;;28.15;30.00;101466.84;5072837;28;20120;-76
2021/06/11 08:50:27;;;;;;;13.68;4.80;;;;;;;28.19;30.12;101474.03;5054819;28;20035;-77
2021/06/11 08:52:53;;;;;;;14.25;3.95;;;;;;;27.65;30.88;101495.31;5053184;28;20383;-76
2021/06/11 08:55:19;;;;;;;10.13;3.90;;;;;;;27.88;30.61;101492.75;5073076;28;20169;-76
2021/06/11 08:57:44;;;;;;;9.70;4.00;;;;;;;27.63;30.91;101487.31;5072736;28;20034;-76
2021/06/11 09:00:11;;;;;;;9.20;3.80;;;;;;;27.60;31.30;101492.97;5072637;28;20039;-76
2021/06/11 09:03:14;;;;;;;12.10;4.57;;;;;;;27.63;31.20;101495.75;5054664;28;20467;-76
2021/06/11 09:06:00;;;;;;;14.25;5.32;;;;;;;27.86;30.79;101511.25;5054185;28;20060;-76
2021/06/11 09:08:28;;;;;;;10.43;4.32;;;;;;;27.54;31.36;101498.22;5054645;28;20062;-82
2021/06/11 09:11:10;;;;;;;11.95;4.18;;;;;;;27.64;31.51;101499.34;5072611;28;20386;-75
2021/06/11 09:13:36;;;;;;;14.68;5.78;;;;;;;27.89;31.03;101504.81;5072286;28;20078;-76
2021/06/11 09:16:11;;;;;;;10.00;3.83;;;;;;;27.70;31.60;101499.75;5072572;28;20020;-77
2021/06/11 09:18:46;;;;;;;13.20;4.57;;;;;;;27.67;31.64;101489.31;5072200;28;20111;-78
2021/06/11 09:21:35;;;;;;;13.27;4.38;;;;;;;28.13;31.18;101486.94;5072495;28;20107;-76
2021/06/11 09:24:27;;;;;;;15.35;4.45;;;;;;;28.53;30.69;101481.72;5070725;28;20115;-76
2021/06/11 09:26:56;;;;;;;12.70;5.13;;;;;;;28.56;30.53;101477.28;5050598;28;20024;-76
2021/06/11 09:29:43;;;;;;;9.10;3.67;;;;;;;28.54;30.57;101488.16;5072302;28;20029;-75
2021/06/11 09:32:25;;;;;;;10.80;4.55;;;;;;;28.41;30.16;101485.06;5072269;28;20021;-75
2021/06/11 09:34:56;;;;;;;21.33;4.55;;;;;;;28.02;30.04;101497.47;5054251;28;20075;-76
2021/06/11 09:37:30;;;;;;;11.80;3.63;;;;;;;28.09;30.24;101496.59;5072378;28;20036;-76
2021/06/11 09:40:13;;;;;;;11.73;3.88;;;;;;;28.09;30.42;101505.81;5072347;28;20158;-76
2021/06/11 09:42:44;;;;;;;8.93;4.00;;;;;;;28.29;30.12;101510.88;5072251;28;20095;-76
2021/06/11 09:45:12;;;;;;;8.43;3.80;;;;;;;28.39;29.81;101507.97;5072185;28;20020;-76
2021/06/11 09:47:44;;;;;;;7.93;2.95;;;;;;;28.46;29.98;101512.72;5072278;28;20074;-76
2021/06/11 09:50:35;;;;;;;11.30;3.63;;;;;;;28.79;29.41;101513.16;5072271;28;20071;-78
2021/06/11 09:53:05;;;;;;;11.10;4.45;;;;;;;28.96;29.26;101518.63;5064141;28;20029;-76
2021/06/11 09:55:39;;;;;;;11.48;4.03;;;;;;;29.17;29.02;101520.38;5034205;28;20082;-76
2021/06/11 09:58:08;;;;;;;14.23;3.95;;;;;;;29.48;28.72;101514.69;5034183;28;20068;-76
2021/06/11 10:00:40;;;;;;;8.25;3.80;;;;;;;29.55;28.64;101518.25;5054319;28;20487;-79
2021/06/11 10:03:11;;;;;;;13.57;3.60;;;;;;;29.69;27.99;101525.66;5056482;28;20028;-77
2021/06/11 10:05:39;;;;;;;12.98;4.25;;;;;;;29.70;28.13;101529.25;5055869;28;20113;-76
2021/06/11 10:08:05;;;;;;;10.95;4.38;;;;;;;29.51;28.27;101525.13;5055920;28;21482;-77
2021/06/11 10:10:31;;;;;;;11.43;4.28;;;;;;;29.66;28.23;101529.31;5055939;28;20021;-77
2021/06/11 10:12:57;;;;;;;7.57;3.75;;;;;;;29.37;28.77;101534.53;5056247;28;20981;-77
2021/06/11 10:15:22;;;;;;;8.88;4.22;;;;;;;29.66;28.34;101534.97;5055388;28;20432;-76
2021/06/11 10:17:48;;;;;;;11.32;4.03;;;;;;;29.68;28.06;101538.13;5055957;28;20028;-76
2021/06/11 10:20:14;;;;;;;15.35;4.05;;;;;;;29.86;28.05;101549.16;5040738;28;20055;-76
2021/06/11 10:22:41;;;;;;;9.63;3.85;;;;;;;29.56;28.42;101541.56;5059101;28;20047;-76
2021/06/11 10:25:09;;;;;;;8.57;3.50;;;;;;;29.70;28.64;101554.59;5059407;28;20161;-76
2021/06/11 10:27:36;;;;;;;16.27;4.80;;;;;;;29.47;28.63;101544.06;5059229;28;20028;-77
2021/06/11 10:30:03;;;;;;;12.88;3.80;;;;;;;29.96;28.15;101553.81;5057996;28;20028;-76
2021/06/11 10:32:29;;;;;;;9.38;3.78;;;;;;;30.14;27.58;101558.38;5058762;28;20089;-80
2021/06/11 10:34:55;;;;;;;16.48;4.68;;;;;;;29.99;28.10;101557.78;5059056;28;20024;-78
2021/06/11 10:37:38;;;;;;;14.02;5.07;;;;;;;30.03;28.21;101562.13;5059409;28;20538;-76
2021/06/11 10:40:22;;;;;;;16.85;4.53;;;;;;;29.92;28.20;101577.59;5059121;28;20023;-76
2021/06/11 10:42:47;;;;;;;24.20;5.20;;;;;;;30.57;27.95;101566.88;5059947;28;20016;-75
2021/06/11 10:45:13;;;;;;;12.40;4.18;;;;;;;30.06;28.46;101563.28;5041215;28;20497;-75
2021/06/11 10:47:55;;;;;;;15.93;5.45;;;;;;;30.15;28.14;101569.19;5041062;28;20044;-76
2021/06/11 10:50:39;;;;;;;14.00;4.53;;;;;;;29.81;28.66;101567.31;5058914;28;20131;-76
2021/06/11 10:53:32;;;;;;;13.60;4.60;;;;;;;30.27;27.90;101562.16;5056216;28;20122;-76
2021/06/11 10:56:16;;;;;;;25.30;5.55;;;;;;;30.58;27.46;101563.63;5055172;28;20028;-76
2021/06/11 10:58:46;;;;;;;9.00;4.10;;;;;;;31.07;27.19;101569.53;5037021;28;20025;-75
2021/06/11 11:01:21;;;;;;;;;;;;;;;31.07;26.80;101563.09;5055399;28;20021;-77
2021/06/11 11:03:47;;;;;;;12.85;4.57;;;;;;;31.24;26.79;101561.16;5037111;28;19962;-75
2021/06/11 11:06:29;;;;;;;7.93;3.75;;;;;;;30.62;27.74;101567.19;5053155;28;20024;-84
2021/06/11 11:08:59;;;;;;;12.48;4.00;;;;;;;30.84;27.37;101561.16;5054797;28;20060;-79
2021/06/11 11:11:25;;;;;;;;;;;;;;;30.65;27.39;101552.19;5055145;28;20032;-76
2021/06/11 11:13:50;;;;;;;20.13;4.72;;;;;;;31.29;26.96;101555.81;5054489;28;19917;-76
2021/06/11 11:16:24;;;;;;;18.85;5.15;;;;;;;31.45;26.81;101555.84;5054714;28;20037;-78
2021/06/11 11:18:50;;;;;;;16.33;4.75;;;;;;;31.70;26.63;101563.72;5054467;28;20029;-82
2021/06/11 11:21:21;;;;;;;17.10;5.07;;;;;;;31.53;26.35;101572.63;5054657;28;20040;-77
2021/06/11 11:23:52;;;;;;;15.00;5.00;;;;;;;31.01;26.63;101557.16;5054447;28;20036;-78
2021/06/11 11:26:40;;;;;;;10.25;4.60;;;;;;;30.81;26.90;101551.50;5054558;28;20036;-82
2021/06/11 11:29:06;;;;;;;18.48;4.88;;;;;;;31.46;26.30;101548.16;5054046;28;20157;-76